Flight Track Log - Related Links

Times and Time Zones

All times are in EDT time to prevent confusion due to time zone crossing. See the N5659W flight status page for this flight to view local times or setup timezone preferences in your user account.

Time Position Orientation Groundspeed Altitude Reporting Facility
EDT Latitude Longitude Course Direction KTS MPH feet Rate Location/Type
Fri 02:43:50 PM 34.2081 -86.1564 359° North 89 102 3,400  Level Atlanta Center
Fri 02:44:21 PM 34.2228 -86.1567 359° North 102 117 3,700 571 Climbing Atlanta Center
Fri 02:44:32 PM 34.2267 -86.1617 313° West 81 93 3,800 400 Climbing Atlanta Center
Fri 02:45:21 PM 34.2436 -86.1622 358° North 81 93 4,100 440 Climbing Atlanta Center
Fri 02:46:21 PM 34.2642 -86.1678 347° North 87 100 4,600 495 Climbing Atlanta Center
Fri 02:48:35 PM 34.3089 -86.1806 347° North 79 91 5,700 433 Climbing Memphis Center
Fri 02:49:35 PM 34.3281 -86.1872 344° North 67 77 6,000 350 Climbing Memphis Center
Fri 02:50:35 PM 34.3469 -86.1889 356° North 67 77 6,400 350 Climbing Memphis Center
Fri 02:51:35 PM 34.3658 -86.1956 344° North 67 77 6,700 250 Climbing Memphis Center
Fri 02:52:35 PM 34.3828 -86.1997 349° North 72 83 6,900 250 Climbing Memphis Center
Fri 02:53:35 PM 34.4017 -86.2039 350° North 72 83 7,200 300 Climbing Memphis Center
Fri 02:54:35 PM 34.4183 -86.2056 355° North 72 83 7,500 250 Climbing Memphis Center
Fri 02:55:35 PM 34.4414 -86.2119 347° North 72 83 7,700 150 Climbing Memphis Center
Fri 02:56:35 PM 34.4603 -86.2161 350° North 72 83 7,800 200 Climbing Memphis Center
Fri 02:57:35 PM 34.4856 -86.2197 353° North 72 83 8,100 250 Climbing Memphis Center
Fri 02:58:35 PM 34.5067 -86.2264 345° North 77 89 8,300 250 Climbing Memphis Center
Fri 02:59:35 PM 34.5297 -86.2303 352° North 77 89 8,600 202 Climbing Memphis Center
Fri 03:00:34 PM 34.5528 -86.2342 352° North 83 96 8,700 200 Climbing Memphis Center
Fri 03:01:35 PM 34.5758 -86.2408 347° North 88 101 9,000 248 Climbing Memphis Center
Fri 03:02:35 PM 34.6011 -86.2444 353° North 88 101 9,200 250 Climbing Memphis Center
Fri 03:03:35 PM 34.6222 -86.2486 351° North 88 101 9,500 250 Climbing Memphis Center
Fri 03:04:35 PM 34.6453 -86.2575 342° North 88 101 9,700 150 Climbing Memphis Center
Fri 03:05:35 PM 34.6664 -86.2642 345° North 88 101 9,800 100 Climbing Memphis Center
Fri 03:06:35 PM 34.6894 -86.2681 352° North 88 101 9,900 150 Climbing Memphis Center
Fri 03:07:35 PM 34.7108 -86.2772 341° North 88 101 10,100 150 Climbing Memphis Center
Fri 03:08:35 PM 34.7317 -86.2836 346° North 88 101 10,200 150 Climbing Memphis Center
Fri 03:09:35 PM 34.7550 -86.2900 347° North 83 96 10,400 200 Climbing Memphis Center
Fri 03:10:35 PM 34.7803 -86.2964 348° North 88 101 10,600 200 Climbing Memphis Center
Fri 03:11:35 PM 34.8033 -86.3006 352° North 88 101 10,800 200 Climbing Memphis Center
Fri 03:12:35 PM 34.8283 -86.3042 353° North 88 101 11,000 150 Climbing Memphis Center
Fri 03:13:35 PM 34.8536 -86.3106 348° North 88 101 11,100 50 Climbing Memphis Center
Fri 03:14:35 PM 34.8811 -86.3194 345° North 93 107 11,100  Level Memphis Center
Fri 03:15:35 PM 34.9103 -86.3231 354° North 93 107 11,100 -50 Level Memphis Center
Fri 03:16:35 PM 34.9417 -86.3267 355° North 104 120 11,000 -50 Descending Memphis Center
Fri 03:17:35 PM 34.9711 -86.3278 358° North 104 120 11,000  Level Memphis Center
Fri 03:18:35 PM 35.0003 -86.3314 354° North 104 120 11,000  Level Memphis Center
Fri 03:19:35 PM 35.0278 -86.3378 349° North 104 120 11,000 50 Level Memphis Center
Fri 03:20:35 PM 35.0531 -86.3442 348° North 104 120 11,100 50 Climbing Memphis Center
Fri 03:21:35 PM 35.0822 -86.3503 350° North 98 113 11,100  Level Memphis Center
Fri 03:22:35 PM 35.1097 -86.3567 349° North 109 125 11,100  Level Memphis Center
Fri 03:23:35 PM 35.1411 -86.3603 355° North 109 125 11,100  Level Memphis Center
Fri 03:24:35 PM 35.1686 -86.3692 345° North 104 120 11,100  Level Memphis Center
Fri 03:25:35 PM 35.1958 -86.3756 349° North 104 120 11,100 -50 Level Memphis Center
Fri 03:26:35 PM 35.2233 -86.3842 346° North 104 120 11,000 -50 Descending Memphis Center
Fri 03:27:35 PM 35.2503 -86.3856 358° North 104 120 11,000  Level Memphis Center
Fri 03:28:35 PM 35.2756 -86.3944 344° North 99 114 11,000  Level Memphis Center
Fri 03:29:35 PM 35.3031 -86.4008 349° North 94 108 11,000 50 Level Memphis Center
Fri 03:30:35 PM 35.3283 -86.4072 348° North 94 108 11,100 50 Climbing Memphis Center
Fri 03:31:35 PM 35.3556 -86.4136 349° North 89 102 11,100  Level Memphis Center
Fri 03:32:35 PM 35.3831 -86.4225 345° North 89 102 11,100  Level Memphis Center
Fri 03:33:35 PM 35.4103 -86.4264 353° North 95 109 11,100  Level Memphis Center
Fri 03:34:35 PM 35.4394 -86.4325 350° North 102 117 11,100  Level Memphis Center
Fri 03:35:35 PM 35.4689 -86.4389 350° North 107 123 11,100  Level Memphis Center
Fri 03:36:35 PM 35.4961 -86.4428 353° North 102 117 11,100  Level Memphis Center
Fri 03:37:35 PM 35.5214 -86.4517 344° North 102 117 11,100  Level Memphis Center
Fri 03:38:35 PM 35.5508 -86.4581 350° North 102 117 11,100 -50 Level Memphis Center
Fri 03:39:35 PM 35.5803 -86.4667 347° North 108 124 11,000  Descending Memphis Center
Fri 03:40:35 PM 35.6078 -86.4731 349° North 102 117 11,100 50 Climbing Memphis Center
Fri 03:41:35 PM 35.6331 -86.4797 348° North 102 117 11,100 50 Level Memphis Center
Fri 03:42:35 PM 35.6603 -86.4861 349° North 97 112 11,200 50 Climbing Memphis Center
Fri 03:43:35 PM 35.6897 -86.4922 350° North 97 112 11,200 -50 Level Memphis Center
Fri 03:44:35 PM 35.7169 -86.4986 349° North 102 117 11,100 -50 Descending Memphis Center
Fri 03:45:35 PM 35.7464 -86.5050 350° North 102 117 11,100  Level Memphis Center
Fri 03:46:35 PM 35.7717 -86.5114 348° North 102 117 11,100 -50 Level Memphis Center
Fri 03:47:35 PM 35.7989 -86.5206 345° North 97 112 11,000  Descending Memphis Center
Fri 03:48:35 PM 35.8242 -86.5244 353° North 97 112 11,100 100 Climbing Memphis Center
Fri 03:49:35 PM 35.8492 -86.5283 353° North 92 106 11,200  Climbing Memphis Center
Fri 03:50:35 PM 35.8786 -86.5347 350° North 98 113 11,100 -67 Descending Memphis Center
Fri 03:52:33 PM 35.9333 -86.5500 347° North 101 116 11,000 -34 Descending Nashville TRACON
Fri 03:53:33 PM 35.9667 -86.5500 360° North 99 114 11,000  Level Nashville TRACON
Fri 03:54:33 PM 35.9833 -86.5500 360° North 98 113 11,000  Level Nashville TRACON
Fri 03:55:33 PM 36.0167 -86.5667 338° Northwest 92 106 11,000  Level Nashville TRACON
Fri 03:56:33 PM 36.0333 -86.5667 360° North 92 106 11,000 53 Level Nashville TRACON
Fri 03:57:27 PM 36.0667 -86.5833 338° Northwest 96 110 11,100 50 Climbing Nashville TRACON
Fri 03:58:33 PM 36.1000 -86.5833 360° North 101 116 11,100 -48 Level Nashville TRACON
Fri 03:59:33 PM 36.1167 -86.5833 360° North 102 117 11,000 -50 Descending Nashville TRACON
Fri 04:00:33 PM 36.1500 -86.6000 338° Northwest 100 115 11,000  Level Nashville TRACON
Fri 04:01:33 PM 36.1833 -86.6000 360° North 102 117 11,000 53 Level Nashville TRACON
Fri 04:02:27 PM 36.2000 -86.6167 321° Northwest 104 120 11,100  Climbing Nashville TRACON
Fri 04:03:27 PM 36.2333 -86.6167 360° North 111 128 11,000 -100 Descending Nashville TRACON
Fri 04:04:27 PM 36.2667 -86.6167 360° North 104 120 10,900 -50 Descending Nashville TRACON
Fri 04:05:27 PM 36.2833 -86.6333 321° Northwest 93 107 10,900  Level Nashville TRACON
Fri 04:06:33 PM 36.3167 -86.6333 360° North 89 102 10,900  Level Nashville TRACON
Fri 04:07:33 PM 36.3333 -86.6500 321° Northwest 87 100 10,900 50 Level Nashville TRACON
Fri 04:08:33 PM 36.3667 -86.6500 360° North 91 105 11,000 99 Climbing Nashville TRACON
Fri 04:09:34 PM 36.3833 -86.6500 360° North 94 108 11,100 50 Climbing Nashville TRACON
Fri 04:10:34 PM 36.4167 -86.6667 338° Northwest 93 107 11,100  Level Nashville TRACON
Fri 04:11:59 PM 36.4519 -86.6753 349° North 99 114 11,100 -41 Level Memphis Center
Fri 04:12:59 PM 36.4750 -86.6794 352° North 105 121 11,000 -50 Descending Memphis Center
Fri 04:13:59 PM 36.5003 -86.6836 352° North 93 107 11,000 100 Level Memphis Center
Fri 04:14:59 PM 36.5211 -86.6903 346° North 83 96 11,200 50 Climbing Memphis Center
Fri 04:15:59 PM 36.5464 -86.6994 344° North 88 101 11,100 -50 Descending Memphis Center
Fri 04:16:59 PM 36.5675 -86.7036 351° North 88 101 11,100 50 Level Memphis Center
Fri 04:17:59 PM 36.5906 -86.7103 347° North 88 101 11,200  Climbing Memphis Center
Fri 04:18:59 PM 36.6136 -86.7144 352° North 88 101 11,100  Descending Memphis Center
Fri 04:19:59 PM 36.6389 -86.7211 348° North 88 101 11,200 50 Climbing Memphis Center
Fri 04:20:59 PM 36.6619 -86.7278 347° North 88 101 11,200 -100 Level Memphis Center
Fri 04:21:59 PM 36.6892 -86.7319 353° North 88 101 11,000 -50 Descending Memphis Center
Fri 04:22:59 PM 36.7144 -86.7358 353° North 88 101 11,100  Climbing Memphis Center
Fri 04:23:59 PM 36.7394 -86.7425 348° North 88 101 11,000  Descending Memphis Center
Fri 04:24:59 PM 36.7628 -86.7492 347° North 88 101 11,100 50 Climbing Memphis Center
Fri 04:25:59 PM 36.7858 -86.7533 352° North 88 101 11,100  Level Memphis Center
Fri 04:26:59 PM 36.8131 -86.7600 349° North 88 101 11,100  Level Memphis Center
Fri 04:27:59 PM 36.8381 -86.7614 357° North 88 101 11,100  Level Memphis Center
Fri 04:28:59 PM 36.8611 -86.7681 347° North 88 101 11,100  Level Memphis Center
Fri 04:29:59 PM 36.8864 -86.7747 348° North 88 101 11,100 -50 Level Memphis Center
Fri 04:30:59 PM 36.9094 -86.7842 342° North 89 102 11,000 -50 Descending Memphis Center
Fri 04:31:59 PM 36.9369 -86.7908 349° North 96 110 11,000  Level Memphis Center
Fri 04:32:59 PM 36.9642 -86.7972 349° North 96 110 11,000  Level Memphis Center
Fri 04:33:59 PM 36.9850 -86.8017 350° North 91 105 11,000 50 Level Memphis Center
Fri 04:34:59 PM 37.0103 -86.8108 344° North 91 105 11,100  Climbing Memphis Center
Fri 04:36:07 PM 37.0453 -86.8136 356° North 109 125 11,000 -92 Descending Indianapolis Center
Fri 04:37:09 PM 37.0744 -86.8183 353° North 106 122 10,900  Descending Indianapolis Center
Fri 04:38:11 PM 37.1003 -86.8236 351° North 95 109 11,000 48 Climbing Indianapolis Center
Fri 04:39:13 PM 37.1294 -86.8306 349° North 91 105 11,000  Level Indianapolis Center
Fri 04:40:15 PM 37.1567 -86.8372 349° North 96 110 11,000 48 Level Indianapolis Center
Fri 04:41:17 PM 37.1819 -86.8422 351° North 93 107 11,100  Climbing Indianapolis Center
Fri 04:42:19 PM 37.2078 -86.8514 344° North 96 110 11,000 -97 Descending Indianapolis Center
Fri 04:43:21 PM 37.2358 -86.8583 349° North 101 116 10,900  Descending Indianapolis Center
Fri 04:44:24 PM 37.2611 -86.8653 348° North 95 109 11,000 48 Climbing Indianapolis Center
Fri 04:45:26 PM 37.2878 -86.8719 349° North 96 110 11,000  Level Indianapolis Center
Fri 04:46:28 PM 37.3131 -86.8786 348° North 94 108 11,000  Level Indianapolis Center
Fri 04:47:30 PM 37.3400 -86.8833 352° North 84 97 11,000  Level Indianapolis Center
Fri 04:48:32 PM 37.3625 -86.8883 350° North 80 92 11,000  Level Indianapolis Center
Fri 04:49:34 PM 37.3853 -86.8983 341° North 84 97 11,000 -48 Level Indianapolis Center
Fri 04:50:36 PM 37.4125 -86.9036 351° North 95 109 10,900  Descending Indianapolis Center
Fri 04:51:38 PM 37.4336 -86.9103 346° North 82 94 11,000 48 Climbing Indianapolis Center
Fri 04:52:40 PM 37.4561 -86.9172 346° North 83 96 11,000  Level Indianapolis Center
Fri 04:53:42 PM 37.4814 -86.9233 349° North 90 104 11,000  Level Indianapolis Center
Fri 04:54:44 PM 37.5122 -86.9292 351° North 95 109 11,000 -48 Level Indianapolis Center
Fri 04:55:46 PM 37.5386 -86.9364 348° North 100 115 10,900  Descending Indianapolis Center
Fri 04:56:48 PM 37.5647 -86.9414 351° North 98 113 11,000 48 Climbing Indianapolis Center
Fri 04:57:50 PM 37.5892 -86.9467 350° North 91 105 11,000  Level Indianapolis Center
Fri 04:58:52 PM 37.6208 -86.9544 349° North 95 109 11,000  Level Indianapolis Center
Fri 04:59:54 PM 37.6450 -86.9619 346° North 91 105 11,000  Level Indianapolis Center
Fri 05:00:56 PM 37.6700 -86.9697 346° North 91 105 11,000  Level Indianapolis Center
Fri 05:01:59 PM 37.6967 -86.9758 350° North 95 109 11,000  Level Indianapolis Center
Fri 05:03:01 PM 37.7239 -86.9811 351° North 98 113 11,000  Level Indianapolis Center
Fri 05:04:03 PM 37.7506 -86.9881 348° North 98 113 11,000 -48 Level Indianapolis Center
Fri 05:05:05 PM 37.7775 -86.9939 350° North 97 112 10,900  Descending Indianapolis Center
Fri 05:06:07 PM 37.8075 -86.9972 355° North 90 104 11,000 48 Climbing Indianapolis Center
Fri 05:07:09 PM 37.8314 -87.0044 347° North 88 101 11,000  Level Indianapolis Center
Fri 05:08:11 PM 37.8569 -87.0111 348° North 92 106 11,000  Level Indianapolis Center
Fri 05:09:13 PM 37.8822 -87.0183 347° North 91 105 11,000  Level Indianapolis Center
Fri 05:10:15 PM 37.9086 -87.0231 352° North 96 110 11,000 48 Level Indianapolis Center
Fri 05:11:17 PM 37.9342 -87.0294 349° North 93 107 11,100  Climbing Indianapolis Center
Fri 05:12:19 PM 37.9608 -87.0361 349° North 97 112 11,000 -48 Descending Indianapolis Center
Fri 05:13:21 PM 37.9925 -87.0436 349° North 96 110 11,000  Level Indianapolis Center
Fri 05:14:23 PM 38.0189 -87.0497 350° North 95 109 11,000  Level Indianapolis Center
Fri 05:15:25 PM 38.0436 -87.0556 349° North 91 105 11,000  Level Indianapolis Center
Fri 05:16:27 PM 38.0689 -87.0619 349° North 92 106 11,000  Level Indianapolis Center
Fri 05:17:29 PM 38.0939 -87.0689 348° North 91 105 11,000 -48 Level Indianapolis Center
Fri 05:18:31 PM 38.1178 -87.0756 348° North 87 100 10,900  Descending Indianapolis Center
Fri 05:19:33 PM 38.1414 -87.0819 348° North 86 99 11,000 48 Climbing Indianapolis Center
Fri 05:20:35 PM 38.1711 -87.0889 350° North 89 102 11,000 48 Level Indianapolis Center
Fri 05:21:38 PM 38.1958 -87.0964 347° North 90 104 11,100  Climbing Indianapolis Center
Fri 05:22:40 PM 38.2206 -87.1028 349° North 90 104 11,000 -48 Descending Indianapolis Center
Fri 05:23:42 PM 38.2461 -87.1086 350° North 91 105 11,000  Level Indianapolis Center
Fri 05:24:44 PM 38.2706 -87.1144 349° North 88 101 11,000  Level Indianapolis Center
Fri 05:25:46 PM 38.2917 -87.1225 343° North 80 92 11,000  Level Indianapolis Center
Fri 05:26:48 PM 38.3158 -87.1294 347° North 86 99 11,000  Level Indianapolis Center
Fri 05:27:50 PM 38.3392 -87.1367 346° North 85 98 11,000 -48 Level Indianapolis Center
Fri 05:28:52 PM 38.3642 -87.1417 351° North 88 101 10,900  Descending Indianapolis Center
Fri 05:29:54 PM 38.3881 -87.1481 348° North 87 100 11,000 97 Climbing Indianapolis Center
Fri 05:30:56 PM 38.4169 -87.1531 352° North 87 100 11,100  Climbing Indianapolis Center
Fri 05:31:58 PM 38.4419 -87.1589 350° North 90 104 11,000 -48 Descending Indianapolis Center
Fri 05:33:00 PM 38.4683 -87.1647 350° North 95 109 11,000  Level Indianapolis Center
Fri 05:34:02 PM 38.4942 -87.1694 352° North 94 108 11,000  Level Indianapolis Center
Fri 05:35:04 PM 38.5214 -87.1778 347° North 98 113 11,000  Level Indianapolis Center
Fri 05:36:06 PM 38.5472 -87.1856 347° North 96 110 11,000  Level Indianapolis Center
Fri 05:37:08 PM 38.5722 -87.1919 349° North 92 106 11,000  Level Indianapolis Center
Fri 05:38:10 PM 38.5994 -87.1994 348° North 85 98 11,000  Level Indianapolis Center
Fri 05:39:13 PM 38.6225 -87.2056 348° North 85 98 11,000  Level Indianapolis Center
Fri 05:40:15 PM 38.6461 -87.2092 353° North 85 98 11,000  Level Indianapolis Center
Fri 05:41:17 PM 38.6700 -87.2153 349° North 85 98 11,000  Level Indianapolis Center
Fri 05:42:19 PM 38.6931 -87.2214 348° North 85 98 11,000  Level Indianapolis Center
Fri 05:43:21 PM 38.7150 -87.2292 345° North 83 96 11,000 48 Level Indianapolis Center
Fri 05:44:23 PM 38.7372 -87.2364 346° North 82 94 11,100 48 Climbing Indianapolis Center
Fri 05:45:25 PM 38.7639 -87.2450 346° North 82 94 11,100 -48 Level Indianapolis Center
Fri 05:46:27 PM 38.7878 -87.2506 350° North 85 98 11,000 -48 Descending Indianapolis Center
Fri 05:47:29 PM 38.8111 -87.2569 348° North 86 99 11,000  Level Indianapolis Center
Fri 05:48:31 PM 38.8344 -87.2617 351° North 85 98 11,000 48 Level Indianapolis Center
Fri 05:49:33 PM 38.8583 -87.2667 351° North 85 98 11,100 48 Climbing Indianapolis Center
Fri 05:50:35 PM 38.8825 -87.2736 347° North 87 100 11,100 -48 Level Indianapolis Center
Fri 05:51:37 PM 38.9086 -87.2789 351° North 93 107 11,000  Descending Indianapolis Center
Fri 05:52:39 PM 38.9356 -87.2856 349° North 85 98 11,100  Climbing Indianapolis Center
Fri 05:53:41 PM 38.9578 -87.2919 347° North 82 94 11,000 -48 Descending Indianapolis Center
Fri 05:54:43 PM 38.9797 -87.2989 346° North 81 93 11,000  Level Indianapolis Center
Fri 05:55:45 PM 39.0017 -87.3058 346° North 81 93 11,000  Level Indianapolis Center
Fri 05:56:47 PM 39.0228 -87.3117 348° North 79 91 11,000  Level Indianapolis Center
Fri 05:57:50 PM 39.0453 -87.3175 349° North 81 93 11,000 -48 Level Indianapolis Center
Fri 05:58:52 PM 39.0656 -87.3231 348° North 76 87 10,900 -387 Descending Indianapolis Center
Fri 05:59:54 PM 39.0967 -87.3344 344° North 87 100 10,200 -581 Descending Indianapolis Center
Fri 06:00:56 PM 39.1261 -87.3372 356° North 98 113 9,700 -484 Descending Indianapolis Center
Fri 06:01:58 PM 39.1564 -87.3433 351° North 104 120 9,200 -484 Descending Indianapolis Center
Fri 06:03:00 PM 39.1831 -87.3500 349° North 102 117 8,700 -532 Descending Indianapolis Center
Fri 06:04:02 PM 39.2094 -87.3589 345° North 99 114 8,100 -339 Descending Indianapolis Center
Fri 06:05:04 PM 39.2350 -87.3661 348° North 97 112 8,000  Descending Indianapolis Center
Fri 06:06:06 PM 39.2631 -87.3722 350° North 88 101 8,100 48 Climbing Indianapolis Center
Fri 06:07:08 PM 39.2856 -87.3786 348° North 84 97 8,100  Level Indianapolis Center
Fri 06:08:10 PM 39.3089 -87.3858 347° North 85 98 8,100  Level Indianapolis Center
Fri 06:09:12 PM 39.3358 -87.3900 353° North 93 107 8,100  Level Indianapolis Center
Fri 06:10:14 PM 39.3592 -87.3933 354° North 89 102 8,100  Level Indianapolis Center
Fri 06:11:16 PM 39.3825 -87.3997 348° North 86 99 8,100  Level Indianapolis Center
Fri 06:12:18 PM 39.4097 -87.4072 348° North 85 98 8,100  Level Indianapolis Center
Fri 06:13:20 PM 39.4339 -87.4133 349° North 87 100 8,100  Level Indianapolis Center
Fri 06:14:22 PM 39.4575 -87.4214 345° North 87 100 8,100  Level Indianapolis Center
Fri 06:15:24 PM 39.4819 -87.4275 349° North 89 102 8,100 -48 Level Indianapolis Center
Fri 06:16:26 PM 39.5069 -87.4339 349° North 91 105 8,000 -48 Descending Indianapolis Center
Fri 06:17:29 PM 39.5314 -87.4397 350° North 90 104 8,000 32 Level Indianapolis Center
Fri 06:19:33 PM 39.5836 -87.4517 350° North 87 100 8,100 32 Climbing Indianapolis Center
Fri 06:20:35 PM 39.6064 -87.4597 345° North 86 99 8,100 -48 Level Indianapolis Center
Fri 06:21:37 PM 39.6319 -87.4647 351° North 91 105 8,000  Descending Indianapolis Center
Fri 06:22:39 PM 39.6575 -87.4711 349° North 93 107 8,100  Climbing Indianapolis Center
Fri 06:23:41 PM 39.6894 -87.4803 348° North 96 110 8,000 -48 Descending Indianapolis Center
Fri 06:24:43 PM 39.7164 -87.4872 349° North 99 114 8,000 48 Level Indianapolis Center
Fri 06:25:45 PM 39.7431 -87.4928 351° North 97 112 8,100 48 Climbing Indianapolis Center
Fri 06:26:47 PM 39.7692 -87.4981 351° North 96 110 8,100  Level Indianapolis Center
Fri 06:27:49 PM 39.7936 -87.5050 348° North 93 107 8,100  Level Indianapolis Center
Fri 06:28:51 PM 39.8186 -87.5119 348° North 92 106 8,100  Level Indianapolis Center
Fri 06:29:53 PM 39.8514 -87.5169 353° North 96 110 8,100 -48 Level Indianapolis Center
Fri 06:30:55 PM 39.8778 -87.5231 350° North 97 112 8,000 -48 Descending Indianapolis Center
Fri 06:31:57 PM 39.9036 -87.5297 349° North 95 109 8,000  Level Indianapolis Center
Fri 06:32:59 PM 39.9278 -87.5375 346° North 94 108 8,000 48 Level Indianapolis Center
Fri 06:34:01 PM 39.9508 -87.5428 350° North 90 104 8,100 48 Climbing Indianapolis Center
Fri 06:35:03 PM 39.9758 -87.5500 348° North 90 104 8,100 -48 Level Indianapolis Center
Fri 06:36:06 PM 40.0075 -87.5567 351° North 95 109 8,000  Descending Indianapolis Center
Fri 06:37:08 PM 40.0317 -87.5622 350° North 91 105 8,100 48 Climbing Indianapolis Center
Fri 06:38:10 PM 40.0558 -87.5706 345° North 90 104 8,100  Level Indianapolis Center
Fri 06:39:12 PM 40.0814 -87.5769 349° North 92 106 8,100  Level Indianapolis Center
Fri 06:40:14 PM 40.1056 -87.5836 348° North 91 105 8,100  Level Indianapolis Center
Fri 06:41:16 PM 40.1311 -87.5903 349° North 92 106 8,100 48 Level Indianapolis Center
Fri 06:42:18 PM 40.1614 -87.5967 351° North 92 106 8,200  Climbing Indianapolis Center
Fri 06:43:20 PM 40.1869 -87.6031 349° North 92 106 8,100 -49 Descending Indianapolis Center
Fri 06:44:21 PM 40.2122 -87.6094 349° North 94 108 8,100  Level Indianapolis Center
Fri 06:45:38 PM 40.2419 -87.6200 345° North 90 104 8,100  Level Chicago Center
Fri 06:46:40 PM 40.2658 -87.6281 346° North 89 102 8,100 48 Level Chicago Center
Fri 06:47:42 PM 40.2944 -87.6372 346° North 89 102 8,200 48 Climbing Chicago Center
Fri 06:48:44 PM 40.3206 -87.6422 352° North 93 107 8,200 -290 Level Chicago Center
Fri 06:49:46 PM 40.3447 -87.6511 344° North 92 106 7,600 -871 Descending Chicago Center
Fri 06:50:48 PM 40.3728 -87.6608 345° North 101 116 6,400 -1,152 Descending Chicago Center
Fri 06:51:51 PM 40.4028 -87.6628 357° North 105 121 5,200 -1,152 Descending Chicago Center
Fri 06:52:53 PM 40.4381 -87.6614 North 106 122 4,000 -581 Descending Chicago Center
Fri 06:53:55 PM 40.4628 -87.6619 359° North 99 114 4,000  Level Chicago Center
Fri 06:54:57 PM 40.4856 -87.6653 354° North 91 105 4,000  Level Chicago Center
Fri 06:55:59 PM 40.5083 -87.6747 343° North 87 100 4,000  Level Chicago Center
Fri 06:57:01 PM 40.5311 -87.6842 343° North 86 99 4,000 48 Level Chicago Center
Fri 06:58:03 PM 40.5558 -87.6900 350° North 81 93 4,100  Climbing Chicago Center
Fri 06:59:05 PM 40.5786 -87.6992 343° North 82 94 4,000 -194 Descending Chicago Center
Fri 07:00:07 PM 40.6019 -87.7064 347° North 84 97 3,700 -484 Descending Chicago Center
Fri 07:01:09 PM 40.6261 -87.7161 343° North 88 101 3,000 -339 Descending Chicago Center
Fri 07:02:11 PM 40.6500 -87.7256 343° North 89 102 3,000 48 Level Chicago Center
Fri 07:03:13 PM 40.6739 -87.7325 348° North 89 102 3,100 48 Climbing Chicago Center
Fri 07:04:15 PM 40.7047 -87.7400 350° North 92 106 3,100 -48 Level Chicago Center
Fri 07:05:17 PM 40.7297 -87.7464 349° North 92 106 3,000 -48 Descending Chicago Center
Fri 07:06:20 PM 40.7544 -87.7533 348° North 92 106 3,000  Level Chicago Center
Fri 07:07:21 PM 40.7783 -87.7583 351° North 90 104 3,000 49 Level Chicago Center
Fri 07:08:23 PM 40.8039 -87.7575 North 90 104 3,100 48 Climbing Chicago Center
Fri 07:09:25 PM 40.8336 -87.7567 North 90 104 3,100  Level Chicago Center
Fri 07:10:27 PM 40.8581 -87.7583 357° North 89 102 3,100 -48 Level Chicago Center
Fri 07:11:29 PM 40.8825 -87.7600 357° North 89 102 3,000 -242 Descending Chicago Center
Fri 07:12:31 PM 40.9056 -87.7650 351° North 87 100 2,600 -290 Descending Chicago Center
Fri 07:13:33 PM 40.9261 -87.7750 340° North 83 96 2,400 -97 Descending Chicago Center
Fri 07:14:35 PM 40.9503 -87.7883 337° Northwest 81 93 2,400 -48 Level Chicago Center
Fri 07:15:38 PM 40.9722 -87.7978 342° North 81 93 2,300 -144 Descending Chicago Center
Fri 07:16:40 PM 40.9917 -87.8072 340° North 78 90 2,100 -532 Descending Chicago Center
Fri 07:17:42 PM 41.0131 -87.8172 341° North 79 91 1,200 -387 Descending Chicago Center
Fri 07:18:44 PM 41.0314 -87.8253 342° North 76 87 1,300 -48 Climbing Chicago Center
Fri 07:19:46 PM 41.0492 -87.8336 341° North 71 82 1,100 -145 Descending Chicago Center
Fri 07:20:48 PM 41.0686 -87.8425 341° North 69 79 1,000 -97 Descending Chicago Center

Login

Don't have an account? Register now (free) for customized features, flight alerts, and more!